This is the latest recevied weather packets stored in our database for station/object K6ALF. If no packets are shown the sender has not sent any weather packets the latest 10 day(s).
| Time | Temp. | Humidity | Pressure | Rain* | Wind** | Luminosity | Snow |
|---|---|---|---|---|---|---|---|
| 1778063452 | 15° C | 82% | 1018.6 hPa | 0 mm | - | - | - |
| 1778062519 | 15° C | 82% | 1018.4 hPa | 0 mm | - | - | - |
| 1778058019 | 15.56° C | 81% | 1018.4 hPa | 0 mm | - | - | - |
| 1778054423 | 16.11° C | 81% | 1018.2 hPa | 0 mm | - | - | - |
| 1778046322 | 16.67° C | 79% | 1017.1 hPa | 0 mm | - | - | - |
| 1778039121 | 17.22° C | 75% | 1015.7 hPa | 0 mm | - | - | - |
| 1778037321 | 17.78° C | 75% | 1015.4 hPa | 0 mm | - | - | - |
| 1778034621 | 17.78° C | 73% | 1015.1 hPa | 0 mm | - | - | - |
| 1778033722 | 18.33° C | 72% | 1014.7 hPa | 0 mm | - | - | - |
| 1778028320 | 18.89° C | 68% | 1014.5 hPa | 0 mm | - | - | - |
| 1778024721 | 18.33° C | 70% | 1014.3 hPa | 0 mm | - | - | - |
| 1778023820 | 18.33° C | 71% | 1014.3 hPa | 0 mm | - | - | - |
| 1778019320 | 18.33° C | 67% | 1014.8 hPa | 0 mm | - | - | - |
| 1778008552 | 17.78° C | 74% | 1015.4 hPa | 0 mm | - | - | - |
| 1778007620 | 17.22° C | 76% | 1015.5 hPa | 0 mm | - | - | - |
| 1778002220 | 15° C | 87% | 1015.2 hPa | 0 mm | - | - | - |
| 1778000420 | 13.89° C | 93% | 1015.3 hPa | 0 mm | - | - | - |
| 1777999522 | 13.89° C | 94% | 1015.1 hPa | 0 mm | - | - | - |
| 1777995020 | 12.22° C | 94% | 1015 hPa | 0 mm | - | - | - |
| 1777992352 | 11.67° C | 94% | 1014.6 hPa | 0 mm | - | - | - |
| 1777988753 | 11.67° C | 94% | 1014.1 hPa | 0 mm | - | - | - |
| 1777986021 | 11.11° C | 94% | 1014 hPa | 0 mm | - | - | - |
| 1777979720 | 11.67° C | 94% | 1013.9 hPa | 0 mm | - | - | - |
| 1777977054 | 11.67° C | 94% | 1013.9 hPa | 0 mm | - | - | - |
| 1777974320 | 11.67° C | 94% | 1013.8 hPa | 0 mm | - | - | - |
* Rain latest hour (hover to see other rain measurements)
** Current wind speed in m/s (hover to see current wind gust speed)